Bei Facebook empfehlenBei Twitter postenGoogle plusPinterest

Das Wetter im Erzgebirge am 17.11.2016

Wetter und Klima am 17.11.2016 Holzhau im Erzgebirge (630m ü.NN)
Letzte gemessene Temperatur und Uhrzeit der Messung23:45:00 Uhr6.90 °C
Temperatur (Maximum / Höchstwert) und Uhrzeit der Messung15:00:00 Uhr8.30 °C
Temperatur (Minimum / Tiefstwert) und Uhrzeit der Messung06:45:001.60 °C
Errechneter Absolutwert der Temperaturschwankungen zwischen Tmin und Tmax des Tages6.70 K
Errechnete Tagesmitteltemperatur6.01458 °C
Gesamt - Niederschlag des Tages (in flüssiger Form)0.00 Liter / m²
Luftdruck (Maximum / Höchstwert) und Zeitpunkt der Messung00:15:00 Uhr1010.50 hPa
Luftdruck (Minimum / Tiefstwert) und Zeitpunkt der Messung23:45:00 Uhr1004.10 hPa
Errechneter Absolutwert der Luftdruckschwankungen des Tages6.40 hPa
Höchste gemessene Windgeschwindigkeit und Uhrzeit der Messung23:45:00 Uhr0.00 km/h
Errechnete Windhäufigkeit in Relation zu den Messwerten des Tages0.00000 %
Niedrigste Windkühle (Windchill) und Zeitpunkt der Messung06:45:00 Uhr1.60 °C
Taupunkt (Maximum / Höchstwert) und Uhrzeit der Messung12:15:00 Uhr7.80 °C
Taupunkt (Minimum / Tiefstwert) und Uhrzeit der Messung06:45:001.00 °C
Anzahl der automatisch eingelesenen Messwerte 96

Detaillierte Wetter- und Klima- Messwerte für den 17.11.2016 in Holzhau im Erzgebirge (630m ü.NN)
ZeitTemperaturLuftdruckRel. LuftfeuchteWindWindrichtungWindchillTaupunktNiederschlag l/m²
23:45:006.90 °C1004.10 hPa95.00 %6.20 °C 
23:30:006.90 °C1004.30 hPa95.00 %6.20 °C 
23:15:006.70 °C1004.10 hPa95.00 %6.00 °C 
23:00:006.60 °C1004.20 hPa95.00 %5.90 °C 
22:45:006.60 °C1004.40 hPa95.00 %5.90 °C 
22:30:006.60 °C1004.50 hPa95.00 %5.90 °C 
22:15:006.60 °C1004.70 hPa95.00 %5.90 °C 
22:00:006.40 °C1004.60 hPa95.00 %5.70 °C 
21:45:006.40 °C1004.80 hPa94.00 %5.50 °C 
21:30:006.40 °C1004.60 hPa94.00 %5.50 °C 
21:15:006.40 °C1005.00 hPa94.00 %5.50 °C 
21:00:006.40 °C1005.10 hPa94.00 %5.50 °C 
20:45:006.40 °C1005.40 hPa94.00 %5.50 °C 
20:30:006.40 °C1005.40 hPa94.00 %5.50 °C 
20:15:006.30 °C1005.20 hPa93.00 %5.30 °C 
20:00:006.10 °C1005.40 hPa93.00 %5.10 °C 
19:45:006.10 °C1005.40 hPa93.00 %5.10 °C 
19:30:006.20 °C1005.40 hPa92.00 %5.00 °C 
19:15:006.40 °C1005.30 hPa92.00 %5.20 °C 
19:00:006.80 °C1005.50 hPa92.00 %5.60 °C 
18:45:006.90 °C1005.50 hPa92.00 %5.70 °C 
18:30:006.90 °C1005.80 hPa92.00 %5.70 °C 
18:15:007.10 °C1005.80 hPa92.00 %5.90 °C 
18:00:007.10 °C1005.80 hPa93.00 %6.00 °C 
17:45:007.20 °C1005.60 hPa93.00 %6.10 °C 
17:30:007.20 °C1005.80 hPa93.00 %6.10 °C 
17:15:007.10 °C1005.80 hPa93.00 %6.00 °C 
17:00:007.10 °C1005.70 hPa93.00 %6.00 °C 
16:45:006.90 °C1005.80 hPa93.00 %5.80 °C 
16:30:006.60 °C1005.70 hPa93.00 %5.60 °C 
16:15:006.80 °C1005.70 hPa92.00 %5.60 °C 
16:00:007.20 °C1005.60 hPa92.00 %6.00 °C 
15:45:007.40 °C1005.70 hPa92.00 %6.20 °C 
15:30:007.50 °C1005.80 hPa92.00 %6.30 °C 
15:15:007.70 °C1005.30 hPa93.00 %6.60 °C 
15:00:008.30 °C1005.30 hPa93.00 %7.20 °C 
14:45:008.10 °C1005.50 hPa94.00 %7.20 °C 
14:30:007.90 °C1005.80 hPa94.00 %7.00 °C 
14:15:008.20 °C1005.90 hPa95.00 %7.40 °C 
14:00:008.10 °C1005.90 hPa95.00 %7.30 °C 
13:45:008.10 °C1005.90 hPa95.00 %7.30 °C 
13:30:008.10 °C1006.00 hPa95.00 %7.30 °C 
13:15:007.90 °C1005.90 hPa96.00 %7.30 °C 
13:00:007.80 °C1006.00 hPa96.00 %7.20 °C 
12:45:007.90 °C1005.90 hPa96.00 %7.30 °C 
12:30:008.20 °C1006.00 hPa96.00 %7.60 °C 
12:15:008.20 °C1006.20 hPa97.00 %7.80 °C 
12:00:008.10 °C1006.30 hPa97.00 %7.70 °C 
11:45:008.10 °C1006.20 hPa97.00 %7.70 °C 
11:30:007.80 °C1006.50 hPa97.00 %7.40 °C 
11:15:007.20 °C1006.50 hPa97.00 %6.80 °C 
11:00:007.10 °C1006.70 hPa97.00 %6.70 °C 
10:45:006.90 °C1006.80 hPa97.00 %6.50 °C 
10:30:006.90 °C1006.80 hPa97.00 %6.50 °C 
10:15:006.80 °C1006.80 hPa97.00 %6.40 °C 
10:00:006.30 °C1007.00 hPa97.00 %5.90 °C 
09:45:005.90 °C1007.10 hPa97.00 %5.50 °C 
09:30:005.50 °C1007.10 hPa97.00 %5.10 °C 
09:15:005.20 °C1007.10 hPa97.00 %4.80 °C 
09:00:004.80 °C1007.30 hPa97.00 %4.40 °C 
08:45:004.10 °C1007.50 hPa97.00 %3.70 °C 
08:30:002.80 °C1007.60 hPa96.00 %2.20 °C 
08:15:002.40 °C1007.80 hPa96.00 %1.80 °C 
08:00:002.20 °C1007.80 hPa96.00 %1.60 °C 
07:45:001.90 °C1007.90 hPa96.00 %1.30 °C 
07:30:001.90 °C1007.90 hPa96.00 %1.30 °C 
07:15:001.80 °C1008.00 hPa96.00 %1.20 °C 
07:00:001.80 °C1008.00 hPa96.00 %1.20 °C 
06:45:001.60 °C1007.80 hPa96.00 %1.00 °C 
06:30:001.90 °C1008.00 hPa96.00 %1.30 °C 
06:15:001.90 °C1008.20 hPa96.00 %1.30 °C 
06:00:002.20 °C1008.10 hPa96.00 %1.60 °C 
05:45:002.40 °C1008.10 hPa96.00 %1.80 °C 
05:30:002.70 °C1008.50 hPa96.00 %2.10 °C 
05:15:002.90 °C1008.50 hPa96.00 %2.30 °C 
05:00:003.30 °C1008.40 hPa96.00 %2.70 °C 
04:45:003.50 °C1008.50 hPa96.00 %2.90 °C 
04:30:004.20 °C1008.50 hPa96.00 %3.60 °C 
04:15:004.90 °C1008.60 hPa96.00 %4.30 °C 
04:00:005.00 °C1008.80 hPa96.00 %4.40 °C 
03:45:005.30 °C1008.90 hPa96.00 %4.70 °C 
03:30:005.60 °C1008.80 hPa97.00 %5.20 °C 
03:15:005.80 °C1008.90 hPa97.00 %5.40 °C 
03:00:005.90 °C1009.10 hPa97.00 %5.50 °C 
02:45:006.20 °C1009.20 hPa97.00 %5.80 °C 
02:30:006.50 °C1009.50 hPa97.00 %6.10 °C 
02:15:006.70 °C1009.60 hPa97.00 %6.30 °C 
02:00:006.70 °C1009.60 hPa97.00 %6.30 °C 
01:45:006.70 °C1009.70 hPa97.00 %6.30 °C 
01:30:006.70 °C1009.70 hPa97.00 %6.30 °C 
01:15:006.70 °C1009.80 hPa97.00 %6.30 °C 
01:00:006.60 °C1010.10 hPa97.00 %6.20 °C 
00:45:006.70 °C1010.30 hPa97.00 %6.30 °C 
00:30:006.60 °C1010.40 hPa97.00 %6.20 °C 
00:15:006.80 °C1010.50 hPa97.00 %6.40 °C 
00:00:006.80 °C1010.50 hPa97.00 %6.40 °C 

Permanenter Link zu dieser Seite: Wetter im Erzgebirge am 17.11.2016
Performance-Info: Die Erstellung der Seite / Statistik(en) / Tabelle(n) erforderte 5 Datenbankserver-Abfrage(n) und dauerte 106 Millisekunden. (Dieser Messwert ist von der Gesamt-Auslastung des Servers abhängig.)
Erzgebirge - Wetter | Erzgebirge - Wetter (Mobilgeräte) | Komplette Klimadatenbank